Time;durP1;ratioP1;P1;durP2;ratioP2;P2;SDS_P1;SDS_P2;PMS_P1;PMS_P2;Temp;Humidity;BMP_temperature;BMP_pressure;BME280_temperature;BME280_humidity;BME280_pressure;Samples;Min_cycle;Max_cycle;Signal;HPM_P1;HPM_P2
2021/07/03 00:01:52;;;;;;;8.87;6.63;;;;;;;;;;741488;187;918780;-67
2021/07/03 00:04:18;;;;;;;8.40;6.60;;;;;;;;;;744633;186;917790;-65
2021/07/03 00:06:43;;;;;;;7.07;6.37;;;;;;;;;;738860;187;1020758;-66
2021/07/03 00:09:09;;;;;;;9.68;7.03;;;;;;;;;;736458;186;918834;-65
2021/07/03 00:11:35;;;;;;;18.73;6.73;;;;;;;;;;743370;187;918695;-66
2021/07/03 00:14:01;;;;;;;10.87;7.53;;;;;;;;;;738265;187;922685;-65
2021/07/03 00:16:27;;;;;;;13.30;7.20;;;;;;;;;;739115;187;924015;-66
2021/07/03 00:18:53;;;;;;;7.17;6.20;;;;;;;;;;745253;186;919084;-65
2021/07/03 00:21:19;;;;;;;8.40;6.27;;;;;;;;;;739411;187;921575;-66
2021/07/03 00:23:44;;;;;;;8.70;6.67;;;;;;;;;;734543;187;922383;-66
2021/07/03 00:26:10;;;;;;;10.00;6.83;;;;;;;;;;743516;187;918724;-66
2021/07/03 00:28:36;;;;;;;12.50;6.47;;;;;;;;;;738824;188;920388;-66
2021/07/03 00:31:02;;;;;;;11.60;7.10;;;;;;;;;;735241;187;919543;-66
2021/07/03 00:33:28;;;;;;;10.13;7.57;;;;;;;;;;739387;187;919916;-65
2021/07/03 00:35:54;;;;;;;14.00;7.70;;;;;;;;;;746727;186;921481;-65
2021/07/03 00:38:19;;;;;;;11.23;6.77;;;;;;;;;;743268;187;920837;-65
2021/07/03 00:40:45;;;;;;;8.48;7.25;;;;;;;;;;738819;187;918039;-65
2021/07/03 00:43:12;;;;;;;16.00;8.37;;;;;;;;;;744291;186;917455;-65
2021/07/03 00:45:37;;;;;;;9.75;6.60;;;;;;;;;;731386;186;919368;-65
2021/07/03 00:48:03;;;;;;;9.40;6.80;;;;;;;;;;739888;186;918678;-65
2021/07/03 00:50:29;;;;;;;11.57;7.27;;;;;;;;;;746470;186;918805;-66
2021/07/03 00:52:54;;;;;;;13.17;8.23;;;;;;;;;;741742;188;919083;-65
2021/07/03 00:55:20;;;;;;;10.38;7.72;;;;;;;;;;737500;186;1022396;-66
2021/07/03 00:57:46;;;;;;;11.43;7.63;;;;;;;;;;737999;186;919214;-65
2021/07/03 01:00:13;;;;;;;10.57;8.43;;;;;;;;;;743192;187;918673;-65
2021/07/03 01:02:38;;;;;;;11.53;7.57;;;;;;;;;;738377;186;918683;-66
2021/07/03 01:05:05;;;;;;;10.53;7.40;;;;;;;;;;738253;187;917894;-65
2021/07/03 01:07:31;;;;;;;11.40;8.00;;;;;;;;;;753016;186;917874;-66
2021/07/03 01:09:57;;;;;;;14.03;7.60;;;;;;;;;;741298;187;1022899;-67
2021/07/03 01:12:22;;;;;;;10.13;7.17;;;;;;;;;;741271;186;918662;-65
2021/07/03 01:14:48;;;;;;;9.07;6.83;;;;;;;;;;743966;188;918990;-66
2021/07/03 01:17:14;;;;;;;13.20;8.30;;;;;;;;;;735969;187;920237;-68
2021/07/03 01:19:40;;;;;;;10.67;8.30;;;;;;;;;;739328;187;918792;-66
2021/07/03 01:22:06;;;;;;;13.27;8.02;;;;;;;;;;743668;187;917690;-65
2021/07/03 01:24:32;;;;;;;11.27;8.23;;;;;;;;;;751171;186;919880;-66
2021/07/03 01:26:58;;;;;;;11.20;8.70;;;;;;;;;;749676;186;633387;-66
2021/07/03 01:29:24;;;;;;;14.30;9.17;;;;;;;;;;735576;186;918152;-66
2021/07/03 01:31:50;;;;;;;10.90;8.10;;;;;;;;;;744752;187;1020500;-66
2021/07/03 01:34:16;;;;;;;16.43;8.73;;;;;;;;;;741414;186;919004;-65
2021/07/03 01:36:41;;;;;;;13.73;8.60;;;;;;;;;;740303;187;918416;-65
2021/07/03 01:39:07;;;;;;;11.40;8.57;;;;;;;;;;738752;187;910686;-65
2021/07/03 01:41:33;;;;;;;21.40;9.33;;;;;;;;;;735145;187;918501;-66
2021/07/03 01:43:59;;;;;;;15.63;9.60;;;;;;;;;;743000;187;921475;-66
2021/07/03 01:46:25;;;;;;;10.60;8.60;;;;;;;;;;743322;189;915446;-66
2021/07/03 01:48:51;;;;;;;16.33;9.98;;;;;;;;;;737760;186;918732;-66
2021/07/03 01:51:16;;;;;;;16.43;10.20;;;;;;;;;;735956;186;919408;-66
2021/07/03 01:53:42;;;;;;;17.30;9.63;;;;;;;;;;738598;186;918392;-66
2021/07/03 01:56:08;;;;;;;13.07;10.50;;;;;;;;;;745358;187;914723;-66
2021/07/03 01:58:35;;;;;;;15.00;10.70;;;;;;;;;;740096;187;919120;-66
2021/07/03 02:01:00;;;;;;;16.37;10.73;;;;;;;;;;737384;185;916264;-66
2021/07/03 02:03:26;;;;;;;13.90;9.40;;;;;;;;;;747724;186;915494;-66
2021/07/03 02:05:51;;;;;;;18.00;9.50;;;;;;;;;;740817;186;909708;-66
2021/07/03 02:08:17;;;;;;;15.40;10.67;;;;;;;;;;742362;186;919762;-66
2021/07/03 02:10:43;;;;;;;16.83;9.60;;;;;;;;;;744651;186;918798;-67
2021/07/03 02:13:09;;;;;;;13.70;9.83;;;;;;;;;;729937;187;919476;-66
2021/07/03 02:15:35;;;;;;;19.08;10.65;;;;;;;;;;739876;187;931877;-67
2021/07/03 02:18:01;;;;;;;19.25;10.82;;;;;;;;;;739303;187;917841;-67
2021/07/03 02:20:27;;;;;;;19.77;10.57;;;;;;;;;;748267;186;914850;-66
2021/07/03 02:22:53;;;;;;;17.33;10.90;;;;;;;;;;739281;187;917209;-66
2021/07/03 02:25:19;;;;;;;26.62;10.55;;;;;;;;;;740870;186;1017949;-66
2021/07/03 02:27:44;;;;;;;29.33;10.67;;;;;;;;;;755369;186;916820;-67
2021/07/03 02:30:12;;;;;;;21.00;10.57;;;;;;;;;;739817;186;916311;-67
2021/07/03 02:32:38;;;;;;;20.03;11.70;;;;;;;;;;740203;186;1017467;-66
2021/07/03 02:35:04;;;;;;;22.33;11.47;;;;;;;;;;743442;186;919125;-66
2021/07/03 02:37:30;;;;;;;21.07;11.33;;;;;;;;;;740101;186;918816;-67
2021/07/03 02:39:55;;;;;;;20.50;11.67;;;;;;;;;;738790;186;921104;-67
2021/07/03 02:42:22;;;;;;;34.83;12.20;;;;;;;;;;741344;186;918597;-66
2021/07/03 02:44:48;;;;;;;19.73;13.10;;;;;;;;;;743206;185;917769;-67
2021/07/03 02:47:14;;;;;;;22.37;11.60;;;;;;;;;;738693;186;919310;-66
2021/07/03 02:49:40;;;;;;;29.13;12.97;;;;;;;;;;739975;187;919085;-67
2021/07/03 02:52:05;;;;;;;24.07;13.70;;;;;;;;;;746552;186;918844;-66
2021/07/03 02:54:31;;;;;;;27.03;12.67;;;;;;;;;;741224;186;919038;-66
2021/07/03 02:56:57;;;;;;;35.00;14.50;;;;;;;;;;740028;187;918704;-67
2021/07/03 02:59:24;;;;;;;24.47;11.90;;;;;;;;;;745229;188;918214;-66
2021/07/03 03:01:50;;;;;;;32.43;13.07;;;;;;;;;;737185;187;917967;-66
2021/07/03 03:04:16;;;;;;;32.63;15.80;;;;;;;;;;734667;186;1021453;-66
2021/07/03 03:06:41;;;;;;;25.60;13.87;;;;;;;;;;746729;186;918169;-66
2021/07/03 03:09:07;;;;;;;25.67;13.50;;;;;;;;;;732642;188;918536;-66
2021/07/03 03:11:33;;;;;;;25.77;15.53;;;;;;;;;;740549;186;918937;-66
2021/07/03 03:13:59;;;;;;;29.70;14.30;;;;;;;;;;740046;188;918913;-66
2021/07/03 03:16:26;;;;;;;31.70;15.27;;;;;;;;;;742864;186;918456;-66
2021/07/03 03:18:51;;;;;;;23.97;15.50;;;;;;;;;;736526;186;918720;-66
2021/07/03 03:21:17;;;;;;;29.30;16.13;;;;;;;;;;739948;186;928742;-66
2021/07/03 03:23:42;;;;;;;33.57;15.23;;;;;;;;;;744980;187;862540;-66
2021/07/03 03:26:08;;;;;;;34.83;15.37;;;;;;;;;;741288;188;919047;-66
2021/07/03 03:28:34;;;;;;;28.50;15.13;;;;;;;;;;737925;187;919310;-66
2021/07/03 03:31:00;;;;;;;33.07;15.97;;;;;;;;;;745409;187;918169;-66
2021/07/03 03:33:26;;;;;;;33.60;14.87;;;;;;;;;;739424;187;918942;-66
2021/07/03 03:35:52;;;;;;;30.67;15.80;;;;;;;;;;741219;186;1020972;-67
2021/07/03 03:38:18;;;;;;;32.63;16.20;;;;;;;;;;739090;186;918322;-67
2021/07/03 03:40:44;;;;;;;41.50;19.23;;;;;;;;;;749895;186;918842;-66
2021/07/03 03:43:10;;;;;;;32.13;16.60;;;;;;;;;;741159;186;918147;-66
2021/07/03 03:45:35;;;;;;;36.90;15.63;;;;;;;;;;739647;186;914095;-66
2021/07/03 03:48:01;;;;;;;31.25;17.10;;;;;;;;;;743414;186;918901;-66
2021/07/03 03:50:27;;;;;;;36.60;17.57;;;;;;;;;;739105;186;919072;-67
2021/07/03 03:52:53;;;;;;;37.45;18.70;;;;;;;;;;739295;186;923818;-67
2021/07/03 03:55:19;;;;;;;55.37;20.20;;;;;;;;;;745026;187;918050;-66
2021/07/03 03:57:46;;;;;;;46.43;21.77;;;;;;;;;;740651;188;918048;-66
2021/07/03 04:00:12;;;;;;;47.13;21.90;;;;;;;;;;739440;187;918194;-66
2021/07/03 04:02:37;;;;;;;44.30;21.97;;;;;;;;;;739311;186;919699;-66
2021/07/03 04:05:04;;;;;;;50.00;24.47;;;;;;;;;;750049;186;919235;-66
2021/07/03 04:07:29;;;;;;;45.97;25.03;;;;;;;;;;742166;186;919112;-66
2021/07/03 04:09:55;;;;;;;62.87;24.70;;;;;;;;;;740332;186;919469;-66
2021/07/03 04:12:21;;;;;;;67.80;25.20;;;;;;;;;;744615;187;918744;-66
2021/07/03 04:14:48;;;;;;;57.47;27.90;;;;;;;;;;740093;186;919769;-67
2021/07/03 04:17:13;;;;;;;62.90;28.30;;;;;;;;;;741462;184;1021484;-67
2021/07/03 04:19:39;;;;;;;63.70;26.43;;;;;;;;;;746278;186;918670;-68
2021/07/03 04:22:05;;;;;;;65.73;28.20;;;;;;;;;;738850;185;919225;-67
2021/07/03 04:24:31;;;;;;;65.78;29.17;;;;;;;;;;741097;186;920124;-67
2021/07/03 04:26:56;;;;;;;63.33;28.67;;;;;;;;;;741999;186;919222;-67
2021/07/03 04:29:22;;;;;;;67.57;30.47;;;;;;;;;;738327;186;918997;-67
2021/07/03 04:31:48;;;;;;;84.37;35.43;;;;;;;;;;742028;186;918706;-67
2021/07/03 04:34:14;;;;;;;76.87;33.83;;;;;;;;;;739748;186;921768;-67
2021/07/03 04:36:40;;;;;;;76.63;33.00;;;;;;;;;;745620;187;918634;-67
2021/07/03 04:39:06;;;;;;;88.77;33.83;;;;;;;;;;739787;187;919918;-67
2021/07/03 04:41:31;;;;;;;85.23;33.80;;;;;;;;;;740398;186;919137;-67
2021/07/03 04:43:58;;;;;;;74.60;31.83;;;;;;;;;;743593;186;919187;-66
2021/07/03 04:46:23;;;;;;;66.50;30.10;;;;;;;;;;740149;186;920588;-67
2021/07/03 04:48:49;;;;;;;65.57;33.20;;;;;;;;;;738588;186;919182;-67
2021/07/03 04:51:15;;;;;;;74.57;31.00;;;;;;;;;;742528;187;918532;-67
2021/07/03 04:53:41;;;;;;;62.97;29.47;;;;;;;;;;740210;187;918718;-67
2021/07/03 04:56:06;;;;;;;60.33;30.63;;;;;;;;;;738520;186;918753;-67
2021/07/03 04:58:33;;;;;;;56.07;31.30;;;;;;;;;;738465;187;919762;-66
2021/07/03 05:00:58;;;;;;;60.50;32.20;;;;;;;;;;742763;187;936698;-67
2021/07/03 05:03:24;;;;;;;49.73;29.83;;;;;;;;;;738004;186;926178;-67
2021/07/03 05:05:50;;;;;;;56.80;30.00;;;;;;;;;;736651;187;916765;-67
2021/07/03 05:08:16;;;;;;;56.53;30.67;;;;;;;;;;743542;189;916386;-67
2021/07/03 05:10:42;;;;;;;53.10;27.83;;;;;;;;;;734968;186;1021911;-67
2021/07/03 05:13:08;;;;;;;44.70;27.80;;;;;;;;;;737855;187;925040;-68
2021/07/03 05:15:33;;;;;;;44.33;29.37;;;;;;;;;;745036;187;916698;-66
2021/07/03 05:17:59;;;;;;;48.55;26.02;;;;;;;;;;741533;186;915591;-67
2021/07/03 05:20:25;;;;;;;48.77;28.13;;;;;;;;;;740709;186;915842;-67
2021/07/03 05:22:51;;;;;;;49.10;28.00;;;;;;;;;;743342;186;909798;-67
2021/07/03 05:25:17;;;;;;;41.30;26.37;;;;;;;;;;738418;187;916485;-67
2021/07/03 05:27:43;;;;;;;40.90;26.60;;;;;;;;;;738141;187;915774;-67
2021/07/03 05:30:09;;;;;;;48.77;27.67;;;;;;;;;;742707;184;915421;-67
2021/07/03 05:32:35;;;;;;;50.33;28.80;;;;;;;;;;746290;186;927621;-67
2021/07/03 05:35:00;;;;;;;41.07;26.40;;;;;;;;;;739043;186;918643;-67
2021/07/03 05:37:26;;;;;;;40.77;25.40;;;;;;;;;;740331;186;919810;-67
2021/07/03 05:39:52;;;;;;;40.00;25.90;;;;;;;;;;744534;186;918547;-69
2021/07/03 05:42:18;;;;;;;37.33;23.70;;;;;;;;;;739194;186;918820;-66
2021/07/03 05:44:44;;;;;;;40.27;25.80;;;;;;;;;;743759;186;890666;-67
2021/07/03 05:47:10;;;;;;;43.22;26.30;;;;;;;;;;746840;186;917661;-67
2021/07/03 05:49:36;;;;;;;37.73;23.20;;;;;;;;;;743695;186;627171;-67
2021/07/03 05:52:01;;;;;;;37.40;24.23;;;;;;;;;;740332;186;883483;-67
2021/07/03 05:54:31;;;;;;;25.00;20.20;;;;;;;;;;737390;187;919026;-66
2021/07/03 05:56:53;;;;;;;32.03;21.50;;;;;;;;;;742124;186;918951;-66
2021/07/03 05:59:19;;;;;;;29.07;21.10;;;;;;;;;;740793;187;919216;-66
2021/07/03 06:01:45;;;;;;;27.80;21.93;;;;;;;;;;741475;187;920571;-66
2021/07/03 06:04:11;;;;;;;30.30;21.67;;;;;;;;;;739726;187;923495;-66
2021/07/03 06:06:36;;;;;;;28.23;18.40;;;;;;;;;;735097;187;1020283;-66
2021/07/03 06:09:02;;;;;;;28.10;20.50;;;;;;;;;;739595;187;917517;-66
2021/07/03 06:11:28;;;;;;;29.80;17.90;;;;;;;;;;743861;186;919254;-66
2021/07/03 06:13:55;;;;;;;25.00;17.80;;;;;;;;;;735929;186;918808;-66
2021/07/03 06:16:20;;;;;;;28.07;17.60;;;;;;;;;;738101;186;918938;-65
2021/07/03 06:18:46;;;;;;;25.93;17.20;;;;;;;;;;744707;186;916411;-65
2021/07/03 06:21:11;;;;;;;23.50;16.33;;;;;;;;;;736451;187;918537;-66
2021/07/03 06:23:37;;;;;;;19.77;15.40;;;;;;;;;;738822;186;920636;-66
2021/07/03 06:26:04;;;;;;;27.03;16.13;;;;;;;;;;738497;186;919267;-65
2021/07/03 06:28:31;;;;;;;19.10;16.20;;;;;;;;;;746340;186;918271;-66
2021/07/03 06:30:55;;;;;;;16.67;14.07;;;;;;;;;;737195;187;919744;-66
2021/07/03 06:33:21;;;;;;;16.40;14.53;;;;;;;;;;740164;186;918065;-67
2021/07/03 06:35:47;;;;;;;19.17;15.00;;;;;;;;;;742215;186;918727;-67
2021/07/03 06:38:12;;;;;;;21.33;16.77;;;;;;;;;;739229;187;925342;-67
2021/07/03 06:40:38;;;;;;;24.33;16.10;;;;;;;;;;742099;187;919207;-66
2021/07/03 06:43:04;;;;;;;20.60;15.80;;;;;;;;;;744877;186;1021311;-66
2021/07/03 06:45:30;;;;;;;19.63;13.67;;;;;;;;;;738631;186;919883;-66
2021/07/03 06:47:56;;;;;;;19.53;15.07;;;;;;;;;;737993;186;918819;-66
2021/07/03 06:50:22;;;;;;;17.60;14.97;;;;;;;;;;738540;186;1019835;-65
2021/07/03 06:52:47;;;;;;;18.40;14.10;;;;;;;;;;741827;186;918951;-66
2021/07/03 06:55:13;;;;;;;17.87;14.33;;;;;;;;;;738072;186;921238;-66
2021/07/03 06:57:39;;;;;;;17.37;14.00;;;;;;;;;;738143;186;1020386;-65
2021/07/03 07:00:06;;;;;;;14.67;11.97;;;;;;;;;;743939;186;914388;-66
2021/07/03 07:02:31;;;;;;;15.33;13.40;;;;;;;;;;739129;186;919125;-65
2021/07/03 07:04:57;;;;;;;15.27;13.40;;;;;;;;;;739657;186;926640;-67
2021/07/03 07:07:23;;;;;;;16.40;13.67;;;;;;;;;;744260;187;919027;-65
2021/07/03 07:09:49;;;;;;;22.30;13.53;;;;;;;;;;741413;186;873482;-66
2021/07/03 07:12:16;;;;;;;16.40;13.77;;;;;;;;;;740212;186;918994;-66
2021/07/03 07:14:42;;;;;;;16.77;12.10;;;;;;;;;;743409;189;919125;-66
2021/07/03 07:17:06;;;;;;;13.60;11.77;;;;;;;;;;736844;187;919912;-65
2021/07/03 07:19:32;;;;;;;16.27;13.40;;;;;;;;;;741115;187;918874;-65
2021/07/03 07:21:58;;;;;;;17.60;13.00;;;;;;;;;;738626;186;918639;-66
2021/07/03 07:24:24;;;;;;;17.63;12.93;;;;;;;;;;743248;189;918917;-66
2021/07/03 07:26:50;;;;;;;14.70;12.30;;;;;;;;;;742678;186;919691;-66
2021/07/03 07:29:16;;;;;;;17.40;13.32;;;;;;;;;;739214;187;918416;-66
2021/07/03 07:31:42;;;;;;;17.53;12.60;;;;;;;;;;746113;187;917677;-66
2021/07/03 07:34:07;;;;;;;13.87;11.67;;;;;;;;;;742154;186;914916;-66
2021/07/03 07:36:33;;;;;;;19.57;13.30;;;;;;;;;;742838;187;917248;-66
2021/07/03 07:38:59;;;;;;;14.80;12.20;;;;;;;;;;745451;187;920342;-65
2021/07/03 07:41:25;;;;;;;17.40;12.30;;;;;;;;;;737166;187;917631;-66
2021/07/03 07:43:51;;;;;;;17.60;13.00;;;;;;;;;;737863;186;915143;-66
2021/07/03 07:46:17;;;;;;;21.60;14.80;;;;;;;;;;741101;187;1017761;-65
2021/07/03 07:48:42;;;;;;;18.37;13.13;;;;;;;;;;740053;186;915803;-65
2021/07/03 07:51:08;;;;;;;17.23;12.55;;;;;;;;;;737084;186;919312;-66
2021/07/03 07:53:34;;;;;;;14.50;12.33;;;;;;;;;;738458;186;920212;-64
2021/07/03 07:56:00;;;;;;;15.03;11.43;;;;;;;;;;741432;186;922793;-66
2021/07/03 07:58:26;;;;;;;19.70;13.30;;;;;;;;;;735654;186;943066;-66
2021/07/03 08:00:52;;;;;;;14.00;12.50;;;;;;;;;;740900;186;918843;-66
2021/07/03 08:03:18;;;;;;;17.53;14.03;;;;;;;;;;743882;187;917899;-66
2021/07/03 08:05:44;;;;;;;17.20;12.83;;;;;;;;;;738582;186;918799;-65
2021/07/03 08:08:09;;;;;;;16.17;13.67;;;;;;;;;;739843;186;919062;-66
2021/07/03 08:10:35;;;;;;;18.40;13.53;;;;;;;;;;741879;186;917528;-66
2021/07/03 08:13:01;;;;;;;16.83;13.77;;;;;;;;;;738648;186;919231;-66
2021/07/03 08:15:27;;;;;;;15.50;13.57;;;;;;;;;;738579;186;918181;-66
2021/07/03 08:17:53;;;;;;;15.27;13.53;;;;;;;;;;739042;187;910392;-66
2021/07/03 08:20:18;;;;;;;19.97;14.80;;;;;;;;;;746171;188;917851;-66
2021/07/03 08:22:44;;;;;;;15.30;12.53;;;;;;;;;;742009;186;918814;-65
2021/07/03 08:25:11;;;;;;;15.83;12.90;;;;;;;;;;737465;187;1021103;-67
2021/07/03 08:27:36;;;;;;;17.63;12.90;;;;;;;;;;734686;187;950571;-66
2021/07/03 08:30:02;;;;;;;17.33;12.67;;;;;;;;;;740798;186;920873;-66
2021/07/03 08:32:28;;;;;;;20.00;12.17;;;;;;;;;;739998;186;918812;-67
2021/07/03 08:34:54;;;;;;;15.30;13.47;;;;;;;;;;734446;187;919545;-66
2021/07/03 08:37:20;;;;;;;17.90;14.00;;;;;;;;;;740089;187;919568;-67
2021/07/03 08:39:46;;;;;;;13.97;11.90;;;;;;;;;;737160;187;926898;-67
2021/07/03 08:42:11;;;;;;;22.10;13.60;;;;;;;;;;731834;188;919336;-66
2021/07/03 08:44:37;;;;;;;18.27;13.10;;;;;;;;;;740543;187;919717;-66
2021/07/03 08:47:03;;;;;;;15.13;13.27;;;;;;;;;;734297;187;941220;-66
2021/07/03 08:49:29;;;;;;;22.40;13.60;;;;;;;;;;737841;187;920164;-66
2021/07/03 08:51:55;;;;;;;14.27;11.80;;;;;;;;;;741023;186;919968;-68
2021/07/03 08:54:21;;;;;;;14.10;11.57;;;;;;;;;;740672;187;916742;-66
2021/07/03 08:56:49;;;;;;;18.17;11.47;;;;;;;;;;739436;186;915375;-66
2021/07/03 08:59:15;;;;;;;12.67;11.37;;;;;;;;;;745127;186;919283;-67
2021/07/03 09:01:46;;;;;;;12.10;10.10;;;;;;;;;;741493;186;919600;-67
2021/07/03 09:04:12;;;;;;;13.47;10.20;;;;;;;;;;741152;186;919131;-67
2021/07/03 09:06:38;;;;;;;12.03;10.83;;;;;;;;;;740811;186;918509;-66
2021/07/03 09:09:03;;;;;;;16.00;11.83;;;;;;;;;;744161;186;920727;-66
2021/07/03 09:11:30;;;;;;;16.53;12.27;;;;;;;;;;739539;186;921080;-66
2021/07/03 09:13:56;;;;;;;16.23;12.17;;;;;;;;;;738734;186;919993;-67
2021/07/03 09:16:29;;;;;;;15.00;12.07;;;;;;;;;;744027;186;917119;-66
2021/07/03 09:18:54;;;;;;;12.77;11.30;;;;;;;;;;752026;185;919755;-66
2021/07/03 09:21:19;;;;;;;15.90;11.50;;;;;;;;;;739841;186;918853;-66
2021/07/03 09:23:45;;;;;;;13.23;10.90;;;;;;;;;;729527;187;921902;-66
2021/07/03 09:26:11;;;;;;;12.80;11.00;;;;;;;;;;745323;187;915229;-67
2021/07/03 09:28:38;;;;;;;14.03;11.67;;;;;;;;;;741841;187;919152;-67
2021/07/03 09:31:03;;;;;;;13.57;11.52;;;;;;;;;;741850;188;918981;-67
2021/07/03 09:33:30;;;;;;;16.40;12.37;;;;;;;;;;743563;187;917412;-67
2021/07/03 09:35:58;;;;;;;17.10;12.70;;;;;;;;;;737982;186;920315;-68
2021/07/03 09:38:30;;;;;;;24.83;12.57;;;;;;;;;;739100;186;919479;-68
2021/07/03 09:40:55;;;;;;;23.40;12.80;;;;;;;;;;739259;187;915805;-69
2021/07/03 09:43:21;;;;;;;18.10;11.93;;;;;;;;;;746068;187;614446;-69
2021/07/03 09:45:48;;;;;;;13.47;12.00;;;;;;;;;;745168;186;638102;-68
2021/07/03 09:48:12;;;;;;;15.60;13.40;;;;;;;;;;742888;187;616001;-68
2021/07/03 09:50:38;;;;;;;15.70;13.87;;;;;;;;;;746644;189;639733;-68
2021/07/03 09:53:05;;;;;;;17.80;14.57;;;;;;;;;;744950;187;630290;-68
2021/07/03 09:55:30;;;;;;;18.92;13.55;;;;;;;;;;741130;186;913775;-68
2021/07/03 09:57:56;;;;;;;18.90;13.60;;;;;;;;;;738089;187;917347;-67
2021/07/03 10:00:22;;;;;;;14.90;12.43;;;;;;;;;;743095;187;920877;-68
2021/07/03 10:02:49;;;;;;;14.97;13.37;;;;;;;;;;738991;187;920058;-67
2021/07/03 10:05:13;;;;;;;15.10;13.17;;;;;;;;;;737154;187;918346;-67
2021/07/03 10:07:39;;;;;;;15.17;11.90;;;;;;;;;;741983;186;913219;-68
2021/07/03 10:10:10;;;;;;;14.20;11.30;;;;;;;;;;741107;182;923981;-68
2021/07/03 10:12:36;;;;;;;19.20;13.10;;;;;;;;;;737059;188;912761;-68
2021/07/03 10:15:01;;;;;;;22.27;13.55;;;;;;;;;;744684;186;914855;-70
2021/07/03 10:17:28;;;;;;;12.40;11.10;;;;;;;;;;742314;186;919468;-69
2021/07/03 10:19:54;;;;;;;14.60;11.43;;;;;;;;;;743531;188;910462;-69
2021/07/03 10:22:20;;;;;;;12.77;10.70;;;;;;;;;;738580;186;918955;-70
2021/07/03 10:24:48;;;;;;;12.30;10.53;;;;;;;;;;748840;186;918313;-69
2021/07/03 10:27:14;;;;;;;16.87;12.80;;;;;;;;;;743815;186;816351;-68
2021/07/03 10:29:40;;;;;;;13.87;11.83;;;;;;;;;;742221;186;918623;-71
2021/07/03 10:32:06;;;;;;;14.70;12.13;;;;;;;;;;745971;186;815494;-67
2021/07/03 10:34:32;;;;;;;14.10;12.57;;;;;;;;;;740684;186;916569;-68
2021/07/03 10:36:57;;;;;;;13.85;12.45;;;;;;;;;;739684;187;1006378;-70
2021/07/03 10:39:24;;;;;;;16.98;12.82;;;;;;;;;;741705;186;918631;-68
2021/07/03 10:41:50;;;;;;;15.03;11.70;;;;;;;;;;738314;186;918111;-67
2021/07/03 10:44:15;;;;;;;14.63;11.13;;;;;;;;;;735359;188;919643;-68
2021/07/03 10:46:41;;;;;;;20.83;13.23;;;;;;;;;;734257;187;917753;-67
2021/07/03 10:49:08;;;;;;;15.50;11.40;;;;;;;;;;743953;187;918995;-69
2021/07/03 10:51:34;;;;;;;14.23;11.60;;;;;;;;;;741040;187;919431;-69
2021/07/03 10:54:05;;;;;;;15.73;11.57;;;;;;;;;;738734;187;918566;-66
2021/07/03 10:56:32;;;;;;;16.42;11.70;;;;;;;;;;741749;187;919059;-69
2021/07/03 10:58:58;;;;;;;11.87;10.67;;;;;;;;;;738844;187;918367;-66
2021/07/03 11:01:24;;;;;;;15.73;12.80;;;;;;;;;;739826;187;918607;-66
2021/07/03 11:03:49;;;;;;;14.10;10.57;;;;;;;;;;738727;186;918815;-68
2021/07/03 11:06:15;;;;;;;13.00;10.50;;;;;;;;;;744554;186;923400;-68
2021/07/03 11:08:43;;;;;;;12.93;10.40;;;;;;;;;;732524;186;1019861;-67
2021/07/03 11:11:08;;;;;;;12.43;9.40;;;;;;;;;;734656;186;1635927;-67
2021/07/03 11:13:33;;;;;;;15.83;11.27;;;;;;;;;;743658;187;922001;-68
2021/07/03 11:15:59;;;;;;;13.30;11.37;;;;;;;;;;738738;186;936360;-67
2021/07/03 11:18:25;;;;;;;14.73;11.27;;;;;;;;;;739287;187;919553;-68
2021/07/03 11:20:51;;;;;;;13.60;11.40;;;;;;;;;;744659;187;918377;-67
2021/07/03 11:23:17;;;;;;;12.30;10.50;;;;;;;;;;740571;186;919537;-67
2021/07/03 11:25:43;;;;;;;11.90;10.60;;;;;;;;;;739101;188;918837;-67
2021/07/03 11:28:10;;;;;;;13.53;12.10;;;;;;;;;;739995;185;923116;-67
2021/07/03 11:30:35;;;;;;;13.20;10.90;;;;;;;;;;743802;186;919897;-67
2021/07/03 11:33:01;;;;;;;16.40;12.07;;;;;;;;;;740103;186;919312;-65
2021/07/03 11:35:27;;;;;;;13.00;10.57;;;;;;;;;;738071;186;918638;-67
2021/07/03 11:37:53;;;;;;;11.23;9.60;;;;;;;;;;744613;186;920794;-67
2021/07/03 11:40:19;;;;;;;17.92;10.50;;;;;;;;;;739800;186;918851;-67
2021/07/03 11:42:45;;;;;;;12.27;9.73;;;;;;;;;;735788;186;920083;-68
2021/07/03 11:45:11;;;;;;;10.87;9.77;;;;;;;;;;745762;186;918752;-69
2021/07/03 11:47:37;;;;;;;10.07;9.07;;;;;;;;;;745955;186;919515;-65
2021/07/03 11:50:03;;;;;;;13.97;10.30;;;;;;;;;;738146;186;920602;-67
2021/07/03 11:52:29;;;;;;;13.80;9.50;;;;;;;;;;738212;187;919899;-65
2021/07/03 11:55:00;;;;;;;11.40;9.23;;;;;;;;;;743984;187;918696;-66
2021/07/03 11:57:26;;;;;;;8.90;8.00;;;;;;;;;;745527;186;917691;-66
2021/07/03 11:59:52;;;;;;;12.53;8.80;;;;;;;;;;739204;186;919700;-66
2021/07/03 12:02:19;;;;;;;9.50;8.50;;;;;;;;;;743771;189;919585;-66
2021/07/03 12:04:44;;;;;;;10.97;8.70;;;;;;;;;;746307;187;919758;-67
2021/07/03 12:07:10;;;;;;;8.93;7.10;;;;;;;;;;742942;187;919564;-67
2021/07/03 12:09:36;;;;;;;10.27;7.87;;;;;;;;;;740212;187;919454;-66
2021/07/03 12:12:02;;;;;;;13.40;8.07;;;;;;;;;;744956;188;917163;-67
2021/07/03 12:14:28;;;;;;;7.53;6.20;;;;;;;;;;738662;187;919470;-66
2021/07/03 12:16:54;;;;;;;10.73;6.43;;;;;;;;;;737963;187;1022242;-66
2021/07/03 12:19:20;;;;;;;8.33;6.50;;;;;;;;;;745145;187;921262;-67
2021/07/03 12:21:46;;;;;;;7.90;7.10;;;;;;;;;;741678;186;919766;-66
2021/07/03 12:24:12;;;;;;;11.67;7.33;;;;;;;;;;738386;186;918129;-64
2021/07/03 12:26:39;;;;;;;10.10;7.27;;;;;;;;;;743310;187;918955;-67
2021/07/03 12:29:05;;;;;;;7.87;7.03;;;;;;;;;;742727;187;919075;-65
2021/07/03 12:31:31;;;;;;;6.90;6.20;;;;;;;;;;737870;187;918433;-66
2021/07/03 12:34:00;;;;;;;8.40;6.47;;;;;;;;;;738558;187;922076;-65
2021/07/03 12:36:25;;;;;;;7.43;6.57;;;;;;;;;;750488;186;895271;-66
2021/07/03 12:38:51;;;;;;;7.63;6.83;;;;;;;;;;744487;185;922534;-66
2021/07/03 12:41:17;;;;;;;7.72;5.95;;;;;;;;;;738164;186;920731;-67
2021/07/03 12:43:43;;;;;;;9.73;6.60;;;;;;;;;;744362;188;917660;-66
2021/07/03 12:46:09;;;;;;;9.40;6.20;;;;;;;;;;739870;186;915523;-66
2021/07/03 12:48:36;;;;;;;8.40;6.47;;;;;;;;;;738482;186;919533;-67
2021/07/03 12:51:01;;;;;;;9.07;6.20;;;;;;;;;;747016;188;914125;-65
2021/07/03 12:53:27;;;;;;;6.90;6.20;;;;;;;;;;742548;186;921225;-66
2021/07/03 12:55:53;;;;;;;7.43;6.03;;;;;;;;;;742050;186;915779;-65
2021/07/03 12:58:20;;;;;;;7.20;5.83;;;;;;;;;;741265;186;915859;-64
2021/07/03 13:00:46;;;;;;;7.70;6.70;;;;;;;;;;744788;186;915386;-66
2021/07/03 13:03:12;;;;;;;7.80;6.00;;;;;;;;;;738592;186;916709;-64
2021/07/03 13:05:38;;;;;;;6.63;5.80;;;;;;;;;;738523;187;1016938;-66
2021/07/03 13:08:04;;;;;;;9.60;5.37;;;;;;;;;;746699;187;914339;-65
2021/07/03 13:10:30;;;;;;;6.27;5.67;;;;;;;;;;738473;186;918995;-64
2021/07/03 13:12:56;;;;;;;8.63;5.67;;;;;;;;;;738528;186;919032;-66
2021/07/03 13:15:22;;;;;;;7.20;5.50;;;;;;;;;;743783;187;918274;-65
2021/07/03 13:17:48;;;;;;;7.73;6.67;;;;;;;;;;740347;187;919274;-66
2021/07/03 13:20:13;;;;;;;10.50;7.30;;;;;;;;;;739893;187;921382;-68
2021/07/03 13:22:39;;;;;;;13.60;7.10;;;;;;;;;;737570;187;918999;-68
2021/07/03 13:25:06;;;;;;;8.87;7.33;;;;;;;;;;734172;187;916414;-67
2021/07/03 13:27:32;;;;;;;8.53;7.03;;;;;;;;;;739349;187;919153;-66
2021/07/03 13:29:57;;;;;;;9.45;8.13;;;;;;;;;;739451;187;1021272;-67
2021/07/03 13:32:23;;;;;;;11.60;8.37;;;;;;;;;;743079;189;917430;-67
2021/07/03 13:34:49;;;;;;;10.57;7.80;;;;;;;;;;738080;187;919470;-67
2021/07/03 13:37:15;;;;;;;9.90;7.63;;;;;;;;;;737745;187;917644;-68
2021/07/03 13:39:41;;;;;;;9.87;8.63;;;;;;;;;;738001;187;918622;-66
2021/07/03 13:42:07;;;;;;;8.80;7.87;;;;;;;;;;739769;187;1025504;-66
2021/07/03 13:44:32;;;;;;;9.80;8.50;;;;;;;;;;737843;187;918229;-67
2021/07/03 13:46:58;;;;;;;10.87;8.43;;;;;;;;;;738536;187;919397;-66
2021/07/03 13:49:24;;;;;;;11.80;9.97;;;;;;;;;;747268;186;919979;-66
2021/07/03 13:51:50;;;;;;;11.27;8.13;;;;;;;;;;741817;185;918966;-66
2021/07/03 13:54:16;;;;;;;13.77;10.37;;;;;;;;;;741555;186;918960;-67
2021/07/03 13:56:42;;;;;;;10.63;8.87;;;;;;;;;;747276;186;871309;-67
2021/07/03 13:59:08;;;;;;;12.27;8.30;;;;;;;;;;735718;186;979832;-66
2021/07/03 14:01:33;;;;;;;13.83;7.43;;;;;;;;;;741384;186;919885;-69